Time;durP1;ratioP1;P1;durP2;ratioP2;P2;SDS_P1;SDS_P2;PMS_P1;PMS_P2;Temp;Humidity;BMP_temperature;BMP_pressure;BME280_temperature;BME280_humidity;BME280_pressure;Samples;Min_cycle;Max_cycle;Signal;HPM_P1;HPM_P2
2022/06/13 00:02:02;;;;;;;9.77;8.88;;;14.30;99.90;;;;;;5053685;28;20087;-71
2022/06/13 00:04:28;;;;;;;10.85;9.75;;;14.30;99.90;;;;;;5053318;28;20033;-72
2022/06/13 00:06:53;;;;;;;11.40;10.30;;;14.30;99.90;;;;;;5053600;28;20044;-71
2022/06/13 00:09:19;;;;;;;11.25;10.23;;;14.20;99.90;;;;;;5053531;28;20029;-74
2022/06/13 00:11:45;;;;;;;11.73;10.63;;;14.20;99.90;;;;;;5053474;28;20028;-72
2022/06/13 00:14:10;;;;;;;10.95;9.95;;;14.10;99.90;;;;;;5053238;28;20497;-71
2022/06/13 00:16:37;;;;;;;12.27;11.05;;;14.10;99.90;;;;;;5052463;28;20021;-74
2022/06/13 00:19:02;;;;;;;12.15;11.00;;;14.10;99.90;;;;;;5035560;28;20167;-74
2022/06/13 00:21:31;;;;;;;11.70;10.60;;;14.00;99.90;;;;;;5053170;28;20100;-71
2022/06/13 00:23:59;;;;;;;12.05;10.40;;;14.00;99.90;;;;;;5053157;28;20029;-74
2022/06/13 00:26:28;;;;;;;11.10;9.93;;;14.00;99.90;;;;;;5067050;28;20016;-71
2022/06/13 00:28:54;;;;;;;12.13;10.93;;;14.00;99.90;;;;;;5055201;28;20024;-75
2022/06/13 00:31:20;;;;;;;13.18;11.77;;;14.00;99.90;;;;;;5037334;28;20111;-71
2022/06/13 00:33:46;;;;;;;12.07;10.45;;;13.90;99.90;;;;;;5053202;28;20017;-75
2022/06/13 00:36:13;;;;;;;10.48;9.48;;;13.90;99.90;;;;;;5053060;28;20529;-71
2022/06/13 00:38:39;;;;;;;9.80;9.00;;;13.90;99.90;;;;;;5053071;28;20386;-71
2022/06/13 00:41:14;;;;;;;9.10;8.30;;;13.90;99.90;;;;;;5053055;28;20029;-74
2022/06/13 00:43:42;;;;;;;7.30;6.70;;;13.80;99.90;;;;;;5053152;28;20025;-74
2022/06/13 00:46:19;;;;;;;7.07;6.43;;;13.70;99.90;;;;;;5052959;28;20025;-74
2022/06/13 00:48:45;;;;;;;6.30;5.80;;;13.60;99.90;;;;;;5052960;28;20364;-74
2022/06/13 00:51:10;;;;;;;6.60;6.03;;;13.50;99.90;;;;;;5052898;28;20025;-74
2022/06/13 00:53:37;;;;;;;7.70;7.00;;;13.50;99.90;;;;;;5052983;28;20024;-72
2022/06/13 00:56:09;;;;;;;8.73;7.55;;;13.50;99.90;;;;;;5052833;28;20047;-70
2022/06/13 00:58:40;;;;;;;8.02;7.32;;;13.50;99.90;;;;;;5035060;28;20127;-74
2022/06/13 01:01:06;;;;;;;9.18;8.27;;;13.40;99.90;;;;;;5052940;28;20501;-73
2022/06/13 01:03:33;;;;;;;10.82;9.82;;;13.50;99.90;;;;;;5052814;28;20033;-71
2022/06/13 01:06:02;;;;;;;10.77;9.63;;;13.40;99.90;;;;;;5052611;28;20045;-74
2022/06/13 01:08:31;;;;;;;12.82;9.60;;;13.40;99.90;;;;;;5052854;28;20363;-74
2022/06/13 01:11:16;;;;;;;14.38;11.90;;;13.40;99.90;;;;;;5052607;28;20032;-71
2022/06/13 01:14:19;;;;;;;11.88;10.77;;;13.50;99.90;;;;;;5034829;28;20497;-74
2022/06/13 01:16:51;;;;;;;;;;;13.40;99.90;;;;;;5035073;28;20029;-74
2022/06/13 01:19:29;;;;;;;12.65;10.30;;;13.40;99.90;;;;;;5052734;28;19909;-74
2022/06/13 01:21:57;;;;;;;10.77;9.77;;;13.40;99.90;;;;;;5034830;28;20487;-70
2022/06/13 01:24:52;;;;;;;12.43;11.23;;;13.40;99.90;;;;;;5034724;28;20021;-71
2022/06/13 01:27:23;;;;;;;12.55;11.35;;;13.30;99.90;;;;;;5016662;28;20049;-74
2022/06/13 01:30:12;;;;;;;10.05;9.15;;;13.30;99.90;;;;;;5062231;28;20426;-71
2022/06/13 01:33:02;;;;;;;8.40;7.60;;;13.30;99.90;;;;;;5062380;28;20036;-74
2022/06/13 01:36:04;;;;;;;10.20;8.80;;;13.20;99.90;;;;;;5076396;28;20030;-74
2022/06/13 01:39:08;;;;;;;9.38;8.55;;;13.10;99.90;;;;;;5058474;28;20032;-71
2022/06/13 01:42:04;;;;;;;10.48;9.57;;;13.10;99.90;;;;;;5076212;28;20021;-71
2022/06/13 01:44:33;;;;;;;10.75;9.52;;;13.10;99.90;;;;;;5073639;28;20024;-74
2022/06/13 01:47:31;;;;;;;11.07;9.50;;;13.10;99.90;;;;;;5056212;28;20060;-74
2022/06/13 01:50:03;;;;;;;10.45;9.55;;;13.10;99.90;;;;;;5056321;28;20104;-74
2022/06/13 01:52:51;;;;;;;11.27;9.50;;;13.10;99.90;;;;;;5056143;28;20021;-71
2022/06/13 01:55:46;;;;;;;11.32;10.27;;;13.10;99.90;;;;;;5038148;28;20036;-71
2022/06/13 01:58:19;;;;;;;11.30;9.73;;;13.20;99.90;;;;;;5055979;28;20518;-74
2022/06/13 02:00:57;;;;;;;9.30;8.50;;;13.20;99.90;;;;;;5056054;28;20021;-71
2022/06/13 02:03:31;;;;;;;9.73;8.60;;;13.10;99.90;;;;;;5055855;28;20028;-71
2022/06/13 02:06:22;;;;;;;10.55;9.45;;;13.00;99.90;;;;;;5037867;28;20052;-71
2022/06/13 02:08:49;;;;;;;16.63;10.68;;;13.10;99.90;;;;;;5055770;28;20052;-74
2022/06/13 02:11:23;;;;;;;12.00;10.35;;;13.10;99.90;;;;;;5055909;28;20056;-71
2022/06/13 02:13:59;;;;;;;12.82;11.52;;;13.10;99.90;;;;;;5055553;28;20032;-71
2022/06/13 02:16:30;;;;;;;12.82;11.27;;;13.10;99.90;;;;;;5055780;28;20017;-74
2022/06/13 02:18:59;;;;;;;14.90;11.55;;;13.20;99.90;;;;;;5055602;28;20025;-74
2022/06/13 02:21:33;;;;;;;12.65;11.35;;;13.30;99.90;;;;;;5055573;28;20043;-73
2022/06/13 02:24:01;;;;;;;13.18;11.52;;;13.40;99.90;;;;;;5055711;28;20025;-74
2022/06/13 02:26:32;;;;;;;12.63;11.43;;;13.50;99.90;;;;;;5070313;28;20182;-71
2022/06/13 02:29:14;;;;;;;12.77;11.43;;;13.60;99.90;;;;;;5075282;28;20359;-74
2022/06/13 02:31:45;;;;;;;11.15;9.95;;;13.70;99.90;;;;;;5055547;28;20173;-74
2022/06/13 02:34:26;;;;;;;9.45;8.60;;;13.80;99.90;;;;;;5037362;28;20086;-74
2022/06/13 02:37:09;;;;;;;10.10;9.10;;;13.80;99.90;;;;;;5037531;28;20024;-74
2022/06/13 02:39:57;;;;;;;9.90;8.90;;;13.80;99.90;;;;;;5054298;28;20029;-74
2022/06/13 02:42:29;;;;;;;8.05;7.40;;;13.80;99.90;;;;;;5054532;28;20044;-71
2022/06/13 02:45:10;;;;;;;7.63;6.93;;;13.60;99.90;;;;;;5053777;28;20497;-71
2022/06/13 02:47:59;;;;;;;7.47;6.88;;;13.50;99.90;;;;;;5037306;28;20271;-74
2022/06/13 02:50:57;;;;;;;10.13;9.10;;;13.40;99.90;;;;;;5055339;28;20023;-74
2022/06/13 02:53:29;;;;;;;10.43;9.52;;;13.40;99.90;;;;;;5037418;28;20032;-71
2022/06/13 02:56:20;;;;;;;10.90;9.90;;;13.30;99.90;;;;;;5054951;28;20021;-74
2022/06/13 02:59:16;;;;;;;10.75;9.65;;;13.30;99.90;;;;;;5054778;28;20025;-74
2022/06/13 03:01:46;;;;;;;13.35;9.75;;;13.30;99.90;;;;;;5036967;28;20384;-74
2022/06/13 03:04:15;;;;;;;11.38;10.23;;;13.40;99.90;;;;;;5054641;28;20024;-71
2022/06/13 03:06:52;;;;;;;11.50;10.30;;;13.40;99.90;;;;;;5054789;28;20053;-73
2022/06/13 03:09:26;;;;;;;13.27;10.00;;;13.40;99.90;;;;;;5054891;28;20032;-71
2022/06/13 03:11:55;;;;;;;11.63;10.52;;;13.50;99.90;;;;;;5054773;28;20028;-71
2022/06/13 03:14:34;;;;;;;12.82;10.93;;;13.50;99.90;;;;;;5036584;28;20071;-71
2022/06/13 03:17:02;;;;;;;10.88;9.93;;;13.50;99.90;;;;;;5036691;28;20016;-75
2022/06/13 03:19:49;;;;;;;12.00;10.95;;;13.50;99.90;;;;;;5054509;28;20075;-70
2022/06/13 03:22:39;;;;;;;14.07;10.27;;;13.60;99.90;;;;;;5036610;28;20032;-70
2022/06/13 03:25:36;;;;;;;13.00;10.77;;;13.80;99.90;;;;;;5040255;28;20016;-74
2022/06/13 03:28:12;;;;;;;9.32;8.50;;;13.90;99.90;;;;;;5074247;28;20432;-71
2022/06/13 03:30:47;;;;;;;10.20;9.15;;;14.00;99.90;;;;;;5061114;28;20497;-74
2022/06/13 03:36:29;;;;;;;16.95;11.02;;;14.20;99.90;;;;;;5054404;28;20087;-71
2022/06/13 03:39:07;;;;;;;21.00;10.35;;;14.30;99.90;;;;;;5036097;28;20017;-74
2022/06/13 03:41:36;;;;;;;12.05;9.02;;;14.30;99.90;;;;;;5060618;28;20424;-75
2022/06/13 03:44:09;;;;;;;10.95;9.75;;;14.40;99.90;;;;;;5073794;28;20532;-71
2022/06/13 03:46:42;;;;;;;12.80;9.63;;;14.40;99.90;;;;;;5073928;28;20063;-70
2022/06/13 03:49:21;;;;;;;11.88;10.60;;;14.50;99.90;;;;;;5073642;28;20052;-71
2022/06/13 03:51:57;;;;;;;10.77;9.43;;;14.50;99.90;;;;;;5073973;28;20104;-75
2022/06/13 03:54:50;;;;;;;12.40;9.82;;;14.50;99.90;;;;;;5073808;28;20028;-70
2022/06/13 03:57:26;;;;;;;12.02;9.60;;;14.60;99.90;;;;;;5073931;28;20117;-74
2022/06/13 04:00:02;;;;;;;13.15;9.52;;;14.70;99.90;;;;;;5055812;28;20021;-70
2022/06/13 04:02:31;;;;;;;10.93;9.90;;;14.70;99.90;;;;;;5073573;28;20044;-74
2022/06/13 04:04:57;;;;;;;9.65;8.85;;;14.80;99.90;;;;;;5073066;28;20060;-74
2022/06/13 04:07:25;;;;;;;10.85;9.85;;;14.80;99.90;;;;;;5073933;28;20020;-74
2022/06/13 04:10:12;;;;;;;11.00;9.98;;;14.90;99.90;;;;;;5073578;28;20047;-74
2022/06/13 04:13:05;;;;;;;11.13;10.02;;;15.00;99.90;;;;;;5073508;28;20060;-71
2022/06/13 04:16:05;;;;;;;11.18;10.07;;;15.10;99.90;;;;;;5055252;28;20031;-70
2022/06/13 04:19:06;;;;;;;12.77;10.32;;;15.20;99.90;;;;;;5055381;28;20028;-74
2022/06/13 04:21:47;;;;;;;10.98;9.98;;;15.20;99.90;;;;;;5055452;28;20089;-71
2022/06/13 04:24:27;;;;;;;11.40;10.40;;;15.30;99.90;;;;;;5073200;28;20016;-73
2022/06/13 04:27:26;;;;;;;10.63;9.68;;;15.30;99.90;;;;;;5036044;28;20017;-71
2022/06/13 04:29:55;;;;;;;11.63;10.43;;;15.30;99.90;;;;;;5060299;28;20027;-74
2022/06/13 04:32:25;;;;;;;9.70;8.85;;;15.20;99.90;;;;;;5055473;28;20029;-74
2022/06/13 04:34:52;;;;;;;8.57;7.78;;;15.20;99.90;;;;;;5072997;28;20056;-74
2022/06/13 04:37:21;;;;;;;9.48;8.50;;;15.40;99.90;;;;;;5073301;28;20090;-71
2022/06/13 04:39:50;;;;;;;9.35;8.43;;;15.50;99.90;;;;;;5073055;28;20111;-71
2022/06/13 04:42:18;;;;;;;10.70;9.60;;;15.60;99.90;;;;;;5051340;28;20041;-71
2022/06/13 04:44:45;;;;;;;12.95;11.85;;;15.70;99.90;;;;;;5051604;28;20036;-74
2022/06/13 04:47:15;;;;;;;13.30;12.10;;;15.70;99.90;;;;;;5059143;28;20021;-74
2022/06/13 04:49:56;;;;;;;12.63;11.43;;;15.90;99.90;;;;;;5053870;28;20029;-70
2022/06/13 04:52:31;;;;;;;11.38;10.40;;;16.00;99.90;;;;;;5061527;28;20041;-70
2022/06/13 04:55:15;;;;;;;12.32;11.05;;;16.10;99.90;;;;;;5058421;28;20022;-71
2022/06/13 04:57:40;;;;;;;10.77;9.25;;;16.40;99.90;;;;;;5053099;28;20047;-74
2022/06/13 05:00:08;;;;;;;10.07;8.60;;;16.50;99.90;;;;;;5034972;28;20017;-70
2022/06/13 05:02:40;;;;;;;9.60;8.35;;;16.80;99.90;;;;;;5057377;28;20033;-75
2022/06/13 05:05:24;;;;;;;8.27;7.53;;;17.00;99.90;;;;;;5076970;28;20040;-70
2022/06/13 05:07:50;;;;;;;8.77;8.02;;;17.20;99.90;;;;;;5076254;28;20032;-75
2022/06/13 05:10:19;;;;;;;10.13;8.00;;;17.50;99.90;;;;;;5044961;28;20032;-75
2022/06/13 05:12:45;;;;;;;10.70;8.10;;;17.70;99.90;;;;;;5071567;28;20367;-75
2022/06/13 05:15:40;;;;;;;8.60;7.80;;;18.00;99.90;;;;;;5069002;28;20032;-75
2022/06/13 05:18:27;;;;;;;8.77;7.85;;;18.20;99.90;;;;;;5066007;28;20238;-75
2022/06/13 05:21:26;;;;;;;11.90;7.43;;;18.50;99.90;;;;;;5057384;28;20060;-75
2022/06/13 05:23:52;;;;;;;8.57;7.53;;;18.80;99.90;;;;;;5051700;28;20508;-75
2022/06/13 05:26:18;;;;;;;11.18;6.95;;;19.00;99.90;;;;;;5068709;28;20021;-75
2022/06/13 05:28:44;;;;;;;7.72;6.18;;;19.20;99.90;;;;;;5055684;28;20033;-75
2022/06/13 05:31:18;;;;;;;9.55;7.18;;;19.40;99.90;;;;;;5073993;28;20112;-75
2022/06/13 05:33:44;;;;;;;9.13;6.57;;;19.50;99.90;;;;;;5075343;28;20046;-75
2022/06/13 05:36:15;;;;;;;7.68;5.65;;;19.70;99.90;;;;;;5075397;28;20052;-72
2022/06/13 05:38:52;;;;;;;7.03;5.22;;;19.90;99.90;;;;;;5056420;28;20032;-72
2022/06/13 05:41:18;;;;;;;5.88;5.10;;;20.10;87.00;;;;;;5075120;28;20497;-70
2022/06/13 05:43:43;;;;;;;6.72;4.70;;;20.30;79.60;;;;;;5071140;28;20054;-73
2022/06/13 05:46:16;;;;;;;6.47;5.78;;;20.50;73.10;;;;;;5072651;28;20034;-73
2022/06/13 05:48:42;;;;;;;7.43;5.72;;;20.70;82.80;;;;;;5075933;28;20107;-73
2022/06/13 05:51:07;;;;;;;6.07;5.15;;;20.80;88.40;;;;;;5074964;28;20071;-73
2022/06/13 05:53:33;;;;;;;9.77;5.20;;;21.00;82.30;;;;;;5075343;28;20020;-72
2022/06/13 05:56:01;;;;;;;5.43;4.75;;;21.10;74.20;;;;;;5057978;28;20028;-72
2022/06/13 05:58:27;;;;;;;5.88;5.30;;;21.20;72.40;;;;;;5076162;28;20474;-73
2022/06/13 06:00:57;;;;;;;8.98;5.40;;;21.50;72.80;;;;;;5057884;28;20027;-70
2022/06/13 06:03:23;;;;;;;15.82;5.63;;;21.70;73.20;;;;;;5076146;28;20412;-73
2022/06/13 06:05:49;;;;;;;5.18;4.38;;;21.80;69.50;;;;;;5057736;28;20049;-70
2022/06/13 06:08:24;;;;;;;4.88;4.47;;;21.80;65.50;;;;;;5076093;28;20039;-73
2022/06/13 06:10:52;;;;;;;6.10;4.32;;;21.80;65.40;;;;;;5075892;28;20017;-70
2022/06/13 06:13:18;;;;;;;5.10;4.55;;;21.80;66.70;;;;;;5058006;28;20027;-73
2022/06/13 06:15:46;;;;;;;5.60;5.03;;;21.80;68.50;;;;;;5075700;28;20393;-71
2022/06/13 06:18:12;;;;;;;6.95;5.32;;;21.80;69.60;;;;;;5057857;28;20021;-70
2022/06/13 06:20:38;;;;;;;6.38;5.07;;;21.70;72.00;;;;;;5075776;28;20071;-70
2022/06/13 06:23:04;;;;;;;6.65;6.05;;;21.70;75.60;;;;;;5075664;28;20029;-72
2022/06/13 06:25:30;;;;;;;7.30;5.95;;;21.60;76.00;;;;;;5049063;28;20024;-70
2022/06/13 06:27:56;;;;;;;6.05;5.45;;;21.50;75.70;;;;;;5055641;28;20450;-71
2022/06/13 06:30:22;;;;;;;7.22;5.63;;;21.30;75.30;;;;;;5049445;28;20063;-73
2022/06/13 06:32:48;;;;;;;5.97;5.18;;;21.20;75.90;;;;;;5075603;28;20021;-73
2022/06/13 06:35:14;;;;;;;8.05;6.63;;;21.10;78.30;;;;;;5075412;28;20029;-73
2022/06/13 06:37:45;;;;;;;6.13;5.63;;;21.10;82.60;;;;;;5057522;28;20021;-73
2022/06/13 06:40:14;;;;;;;7.55;5.72;;;21.00;80.00;;;;;;5075540;28;20482;-73
2022/06/13 06:42:40;;;;;;;11.40;7.75;;;21.00;79.80;;;;;;5075325;28;20029;-72
2022/06/13 06:45:06;;;;;;;13.02;7.75;;;20.80;76.60;;;;;;5075203;28;20027;-72
2022/06/13 06:47:32;;;;;;;18.20;10.88;;;20.80;78.90;;;;;;5075164;28;20032;-71
2022/06/13 06:49:58;;;;;;;19.27;10.50;;;20.70;79.10;;;;;;5057172;28;20021;-70
2022/06/13 06:52:24;;;;;;;16.30;9.48;;;20.70;78.60;;;;;;5057106;28;20028;-70
2022/06/13 07:00:19;;;;;;;11.60;8.23;;;20.80;77.40;;;;;;5075055;28;20047;-72
2022/06/13 07:02:45;;;;;;;19.13;9.50;;;21.20;80.30;;;;;;5074873;28;20109;-72
2022/06/13 07:05:13;;;;;;;9.82;8.60;;;21.30;75.30;;;;;;5074710;28;20072;-73
2022/06/13 07:07:38;;;;;;;13.30;9.52;;;21.30;71.40;;;;;;5074774;28;20028;-70
2022/06/13 07:10:05;;;;;;;14.25;8.73;;;21.60;72.30;;;;;;5074844;28;20508;-72
2022/06/13 07:12:31;;;;;;;17.33;8.85;;;21.70;73.90;;;;;;5074746;28;20060;-72
2022/06/13 07:14:57;;;;;;;15.95;9.10;;;21.70;71.10;;;;;;5074521;28;20039;-72
2022/06/13 07:17:22;;;;;;;11.38;9.15;;;21.70;70.80;;;;;;5056768;28;20063;-72
2022/06/13 07:19:48;;;;;;;12.13;8.35;;;21.80;70.70;;;;;;5056769;28;20381;-70
2022/06/13 07:22:19;;;;;;;14.25;8.48;;;21.90;71.10;;;;;;5074446;28;20079;-73
2022/06/13 07:24:46;;;;;;;9.95;8.85;;;22.00;72.20;;;;;;5053429;28;20020;-70
2022/06/13 07:27:13;;;;;;;11.35;8.57;;;22.00;73.30;;;;;;5054381;28;20021;-73
2022/06/13 07:29:39;;;;;;;13.57;9.50;;;22.20;72.60;;;;;;5060485;28;20133;-73
2022/06/13 07:32:22;;;;;;;13.48;8.70;;;22.40;70.80;;;;;;5074418;28;20104;-71
2022/06/13 07:34:52;;;;;;;9.73;8.55;;;22.60;71.80;;;;;;5074070;28;20024;-72
2022/06/13 07:40:10;;;;;;;15.05;7.60;;;22.60;71.40;;;;;;5074404;28;20039;-70
2022/06/13 07:42:40;;;;;;;9.75;8.15;;;22.60;70.80;;;;;;5073925;28;20068;-73
2022/06/13 07:45:07;;;;;;;11.43;7.70;;;22.50;69.40;;;;;;5073940;28;20020;-73
2022/06/13 07:47:32;;;;;;;8.07;7.10;;;22.40;70.20;;;;;;5074047;28;20445;-73
2022/06/13 07:49:58;;;;;;;12.85;7.47;;;22.20;70.40;;;;;;5074099;28;20101;-73
2022/06/13 07:52:24;;;;;;;9.82;7.90;;;22.10;73.40;;;;;;5074086;28;20021;-71
2022/06/13 07:54:50;;;;;;;7.80;7.00;;;22.00;74.60;;;;;;5073632;28;20039;-70
2022/06/13 07:57:16;;;;;;;8.63;7.68;;;21.80;71.80;;;;;;5055858;28;20023;-71
2022/06/13 07:59:42;;;;;;;9.63;7.03;;;21.50;72.90;;;;;;5073963;28;20033;-72
2022/06/13 08:02:18;;;;;;;10.05;7.35;;;21.30;75.70;;;;;;5073681;28;20107;-70
2022/06/13 08:04:44;;;;;;;10.63;9.25;;;21.10;80.90;;;;;;5073309;28;20505;-70
2022/06/13 08:07:11;;;;;;;12.25;9.23;;;20.90;87.50;;;;;;5073784;28;20109;-73
2022/06/13 08:09:37;;;;;;;15.73;10.32;;;20.70;93.40;;;;;;5055815;28;20025;-70
2022/06/13 08:12:04;;;;;;;14.05;10.30;;;20.50;99.90;;;;;;5073595;28;20028;-73
2022/06/13 08:14:30;;;;;;;15.10;10.35;;;20.30;99.90;;;;;;5072948;28;20032;-70
2022/06/13 08:16:56;;;;;;;11.70;10.13;;;20.00;99.90;;;;;;5055271;28;20021;-71
2022/06/13 08:19:22;;;;;;;11.07;9.65;;;19.80;99.90;;;;;;5073554;28;20029;-73
2022/06/13 08:21:47;;;;;;;11.23;8.98;;;19.80;99.90;;;;;;5055725;28;20496;-73
2022/06/13 08:24:13;;;;;;;12.60;9.80;;;19.50;99.90;;;;;;5073230;28;20021;-70
2022/06/13 08:26:38;;;;;;;10.65;9.55;;;19.30;99.90;;;;;;5054821;28;20092;-73
2022/06/13 08:29:04;;;;;;;11.52;8.35;;;19.10;99.90;;;;;;5053731;28;20028;-71
2022/06/13 08:31:31;;;;;;;7.70;6.97;;;18.80;99.90;;;;;;5073338;28;20067;-71
2022/06/13 08:33:57;;;;;;;8.60;6.65;;;18.60;99.90;;;;;;5073179;28;20200;-73
2022/06/13 08:36:22;;;;;;;7.68;6.95;;;18.50;99.90;;;;;;5072444;28;20095;-73
2022/06/13 08:38:48;;;;;;;8.23;7.05;;;18.50;99.90;;;;;;5073164;28;20384;-73
2022/06/13 08:41:37;;;;;;;7.63;6.93;;;18.40;99.90;;;;;;5073298;28;20115;-72
2022/06/13 08:44:18;;;;;;;8.00;6.80;;;18.40;99.90;;;;;;5073226;28;20031;-72
2022/06/13 08:46:47;;;;;;;7.13;6.15;;;18.40;99.90;;;;;;5073163;28;20025;-75
2022/06/13 08:49:22;;;;;;;6.95;6.13;;;18.30;99.90;;;;;;5073133;28;20031;-74
2022/06/13 08:51:56;;;;;;;6.20;5.28;;;18.30;99.90;;;;;;5073347;28;20377;-75
2022/06/13 08:54:28;;;;;;;5.90;5.30;;;18.30;99.90;;;;;;5072969;28;20595;-72
2022/06/13 08:56:55;;;;;;;7.88;5.65;;;18.30;99.90;;;;;;5073087;28;20103;-72
2022/06/13 08:59:42;;;;;;;5.25;4.65;;;18.20;99.90;;;;;;5073100;28;20017;-73
2022/06/13 09:02:20;;;;;;;5.43;4.82;;;18.20;99.90;;;;;;5073059;28;20086;-72
2022/06/13 09:04:59;;;;;;;5.32;4.82;;;18.30;99.90;;;;;;5072603;28;20060;-75
2022/06/13 09:07:36;;;;;;;5.63;5.13;;;18.50;99.90;;;;;;5073025;28;20100;-75
2022/06/13 09:10:16;;;;;;;6.07;4.18;;;18.70;99.90;;;;;;5072945;28;20104;-71
2022/06/13 09:13:20;;;;;;;4.80;4.40;;;18.90;99.90;;;;;;5054822;28;20029;-75
2022/06/13 09:15:50;;;;;;;6.25;4.50;;;19.00;99.90;;;;;;5037928;28;20139;-75
2022/06/13 09:18:28;;;;;;;3.95;3.65;;;19.10;99.90;;;;;;5072821;28;20016;-72
2022/06/13 09:21:10;;;;;;;3.35;3.10;;;19.20;99.90;;;;;;5072824;28;20025;-72
2022/06/13 09:24:11;;;;;;;3.80;2.92;;;19.00;99.00;;;;;;5054834;28;20440;-75
2022/06/13 09:26:46;;;;;;;3.08;2.88;;;19.00;96.30;;;;;;5023582;28;20121;-72
2022/06/13 09:29:45;;;;;;;4.20;2.03;;;18.90;98.10;;;;;;5055946;28;20159;-75
2022/06/13 09:32:18;;;;;;;2.95;2.75;;;18.70;94.50;;;;;;5041896;28;20041;-72
2022/06/13 09:34:45;;;;;;;;;;;18.80;96.80;;;;;;5054854;28;20028;-75
2022/06/13 09:37:12;;;;;;;3.72;3.25;;;18.60;99.90;;;;;;5072833;28;19916;-72
2022/06/13 09:39:40;;;;;;;2.65;2.45;;;18.50;99.90;;;;;;5072603;28;20021;-72
2022/06/13 09:42:36;;;;;;;3.15;2.88;;;18.50;99.90;;;;;;5072595;28;20033;-72
2022/06/13 09:45:07;;;;;;;3.22;2.95;;;18.40;99.90;;;;;;5053799;28;20041;-72
2022/06/13 09:47:42;;;;;;;3.35;3.05;;;18.30;99.90;;;;;;5073471;28;20482;-75
2022/06/13 09:50:20;;;;;;;2.90;2.70;;;18.40;99.90;;;;;;5076341;28;20050;-72
2022/06/13 09:53:07;;;;;;;3.90;2.63;;;18.40;99.90;;;;;;5058336;28;20029;-75
2022/06/13 09:55:53;;;;;;;3.65;3.15;;;18.60;99.90;;;;;;5058303;28;20031;-74
2022/06/13 09:58:37;;;;;;;3.15;2.85;;;18.80;99.90;;;;;;5076239;28;20089;-72
2022/06/13 10:01:09;;;;;;;4.25;3.00;;;18.90;99.90;;;;;;5076097;28;20028;-74
2022/06/13 10:04:17;;;;;;;3.08;2.78;;;18.90;99.90;;;;;;5075968;28;20063;-72
2022/06/13 10:06:56;;;;;;;2.85;2.65;;;18.90;99.90;;;;;;5041256;28;20048;-72
2022/06/13 10:09:30;;;;;;;7.05;3.38;;;18.90;99.90;;;;;;5058027;28;20025;-74
2022/06/13 10:12:15;;;;;;;2.90;2.70;;;18.80;99.90;;;;;;5058098;28;20020;-75
2022/06/13 10:14:43;;;;;;;4.15;3.33;;;18.80;99.90;;;;;;5075773;28;20028;-74
2022/06/13 10:17:34;;;;;;;3.60;3.03;;;18.70;99.90;;;;;;5075960;28;20433;-75
2022/06/13 10:20:13;;;;;;;5.07;3.75;;;18.70;99.90;;;;;;5075759;28;20066;-72
2022/06/13 10:23:02;;;;;;;3.17;2.97;;;18.70;99.90;;;;;;5075768;28;20033;-75
2022/06/13 10:25:45;;;;;;;3.75;3.45;;;18.60;99.90;;;;;;5066058;28;20364;-75
2022/06/13 10:28:38;;;;;;;3.20;2.95;;;18.70;99.90;;;;;;5037728;28;20025;-72
2022/06/13 10:31:34;;;;;;;3.55;3.00;;;18.80;99.90;;;;;;5074388;28;20111;-74
2022/06/13 10:34:10;;;;;;;2.70;2.50;;;19.00;99.90;;;;;;5075627;28;20075;-72
2022/06/13 10:36:54;;;;;;;3.10;2.63;;;19.10;99.90;;;;;;5049336;28;20049;-73
2022/06/13 10:39:24;;;;;;;3.65;3.25;;;19.30;99.90;;;;;;5070458;28;20024;-70
2022/06/13 10:42:01;;;;;;;3.65;3.00;;;19.30;99.90;;;;;;5073910;28;20120;-69
2022/06/13 10:44:26;;;;;;;3.25;2.95;;;19.40;99.90;;;;;;5073039;28;20036;-69
2022/06/13 10:47:01;;;;;;;3.15;2.88;;;19.20;99.90;;;;;;5073708;28;20394;-70
2022/06/13 10:49:45;;;;;;;3.42;3.00;;;19.20;99.90;;;;;;5072942;28;20023;-69
2022/06/13 10:52:16;;;;;;;3.22;3.03;;;19.20;99.90;;;;;;5073739;28;20115;-70
2022/06/13 10:54:56;;;;;;;4.55;3.45;;;19.30;99.90;;;;;;5055849;28;20021;-73
2022/06/13 10:57:29;;;;;;;3.83;3.53;;;19.30;99.90;;;;;;5073760;28;20086;-73
2022/06/13 11:00:16;;;;;;;5.13;3.63;;;19.20;99.90;;;;;;5072355;28;20104;-73
2022/06/13 11:02:42;;;;;;;4.72;4.32;;;19.10;99.90;;;;;;5061169;28;20040;-73
2022/06/13 11:05:16;;;;;;;4.60;4.20;;;19.10;99.90;;;;;;5073488;28;20060;-73
2022/06/13 11:07:49;;;;;;;5.30;4.80;;;19.00;99.90;;;;;;5073964;28;20033;-73
2022/06/13 11:10:37;;;;;;;6.72;4.97;;;19.00;99.90;;;;;;5045479;28;20040;-73
2022/06/13 11:13:11;;;;;;;6.10;5.45;;;19.00;99.90;;;;;;5043114;28;20045;-73
2022/06/13 11:25:00;;;;;;;8.50;6.15;;;19.30;99.90;;;;;;4998432;28;20038;-73
2022/06/13 11:27:40;;;;;;;9.90;7.32;;;19.30;99.90;;;;;;4991761;28;20039;-73
2022/06/13 11:30:28;;;;;;;12.68;7.28;;;19.30;99.90;;;;;;5023272;28;20028;-73
2022/06/13 11:33:06;;;;;;;8.27;6.07;;;19.60;99.90;;;;;;5055267;28;20029;-71
2022/06/13 11:35:54;;;;;;;6.72;5.97;;;19.80;99.90;;;;;;5072816;28;20025;-72
2022/06/13 11:38:25;;;;;;;7.82;5.70;;;19.90;99.90;;;;;;5054834;28;20033;-73
2022/06/13 11:41:17;;;;;;;5.65;3.90;;;19.90;99.90;;;;;;5073082;28;20603;-73
2022/06/13 11:43:51;;;;;;;5.13;4.38;;;19.90;99.90;;;;;;5059462;28;20398;-74
2022/06/13 11:46:31;;;;;;;4.50;3.20;;;20.10;99.90;;;;;;5065556;28;20029;-73
2022/06/13 11:49:26;;;;;;;4.10;3.42;;;20.20;98.20;;;;;;5055027;28;20028;-73
2022/06/13 11:52:00;;;;;;;4.75;3.25;;;20.20;95.60;;;;;;5036779;28;20047;-73
2022/06/13 11:54:31;;;;;;;5.78;3.92;;;20.20;95.90;;;;;;5072572;28;20025;-73
2022/06/13 11:57:18;;;;;;;3.97;3.63;;;20.10;99.90;;;;;;5072616;28;20121;-73
2022/06/13 11:59:57;;;;;;;5.22;3.90;;;20.20;99.90;;;;;;5054051;28;20025;-73
2022/06/13 12:02:40;;;;;;;5.85;4.20;;;20.20;99.90;;;;;;5054093;28;20043;-73
2022/06/13 12:05:21;;;;;;;5.05;4.55;;;20.20;99.40;;;;;;5054610;28;20084;-73
2022/06/13 12:07:54;;;;;;;4.47;4.07;;;20.40;99.90;;;;;;5072387;28;20048;-73
2022/06/13 12:10:25;;;;;;;4.40;4.00;;;20.30;99.90;;;;;;5072368;28;20031;-70
2022/06/13 12:12:52;;;;;;;4.38;2.97;;;20.50;99.90;;;;;;5072237;28;20052;-70
2022/06/13 12:15:20;;;;;;;3.10;2.80;;;20.40;99.30;;;;;;5071431;28;20099;-70
2022/06/13 12:18:00;;;;;;;4.25;2.95;;;20.30;99.90;;;;;;5072322;28;20040;-73
2022/06/13 12:20:30;;;;;;;3.53;3.22;;;20.30;97.80;;;;;;5072095;28;20028;-73
2022/06/13 12:23:07;;;;;;;4.25;3.53;;;20.10;98.50;;;;;;5071301;28;21009;-74
2022/06/13 12:25:39;;;;;;;3.58;2.95;;;19.80;99.00;;;;;;5065065;28;20047;-73
2022/06/13 12:28:17;;;;;;;3.92;3.10;;;19.50;92.70;;;;;;5072215;28;20153;-74
2022/06/13 12:30:59;;;;;;;3.22;2.97;;;19.40;96.50;;;;;;5072037;28;20051;-73
2022/06/13 12:33:52;;;;;;;4.75;3.83;;;19.40;96.70;;;;;;5050665;28;20075;-70
2022/06/13 12:36:20;;;;;;;;;;;19.60;98.10;;;;;;5067298;28;20032;-70
2022/06/13 12:38:52;;;;;;;6.47;5.88;;;19.60;98.60;;;;;;5061002;28;19999;-69
2022/06/13 12:41:39;;;;;;;6.93;6.23;;;19.50;97.10;;;;;;5047724;28;20025;-70
2022/06/13 12:44:29;;;;;;;6.43;5.93;;;19.60;97.10;;;;;;5064326;28;20037;-70
2022/06/13 12:47:23;;;;;;;8.07;6.78;;;20.00;99.90;;;;;;5051538;28;20063;-70
2022/06/13 12:50:44;;;;;;;7.70;6.38;;;20.10;97.50;;;;;;5072225;28;20481;-73
2022/06/13 12:53:41;;;;;;;7.22;6.15;;;19.90;98.80;;;;;;5034695;28;20032;-73
2022/06/13 12:56:30;;;;;;;6.05;5.55;;;19.50;99.90;;;;;;5072084;28;20021;-73
2022/06/13 12:58:59;;;;;;;6.32;5.72;;;19.10;99.90;;;;;;5059603;28;20045;-73
2022/06/13 13:01:58;;;;;;;6.35;5.85;;;18.80;99.90;;;;;;5071489;28;20025;-73
2022/06/13 13:04:55;;;;;;;6.75;6.15;;;18.50;99.90;;;;;;5071278;28;20106;-76
2022/06/13 13:07:59;;;;;;;6.53;5.82;;;18.30;99.90;;;;;;5062476;28;20098;-75
2022/06/13 13:10:29;;;;;;;6.95;6.35;;;18.30;99.90;;;;;;5066240;28;20478;-75
2022/06/13 13:13:10;;;;;;;10.05;6.15;;;18.10;99.90;;;;;;5070945;28;20482;-74
2022/06/13 13:15:55;;;;;;;5.63;5.05;;;17.90;99.90;;;;;;5053381;28;20025;-75
2022/06/13 13:18:21;;;;;;;4.50;4.10;;;17.80;99.90;;;;;;5059315;28;20041;-71
2022/06/13 13:21:12;;;;;;;5.28;4.88;;;17.60;99.90;;;;;;5070846;28;20032;-72
2022/06/13 13:23:40;;;;;;;6.25;5.53;;;17.40;99.90;;;;;;5048501;28;20079;-72
2022/06/13 13:26:31;;;;;;;5.57;5.18;;;17.20;99.90;;;;;;5045767;28;20020;-71
2022/06/13 13:29:27;;;;;;;4.50;4.10;;;17.10;99.90;;;;;;5055873;28;20486;-75
2022/06/13 13:32:16;;;;;;;4.68;3.35;;;17.10;99.90;;;;;;5075928;28;20100;-75
2022/06/13 13:34:47;;;;;;;4.78;4.20;;;16.90;99.90;;;;;;5065322;28;20032;-72
2022/06/13 13:37:23;;;;;;;4.40;4.10;;;16.80;99.90;;;;;;5075388;28;20504;-71
2022/06/13 13:40:03;;;;;;;5.53;4.72;;;16.80;99.90;;;;;;5057419;28;20090;-71
2022/06/13 13:42:37;;;;;;;4.35;4.00;;;16.70;99.90;;;;;;5061549;28;20040;-71
2022/06/13 13:45:48;;;;;;;3.85;2.83;;;16.50;99.90;;;;;;5072354;28;20376;-72
2022/06/13 13:48:26;;;;;;;3.55;3.25;;;16.20;99.90;;;;;;5070104;28;20064;-72